Time;durP1;ratioP1;P1;durP2;ratioP2;P2;SDS_P1;SDS_P2;PMS_P1;PMS_P2;Temp;Humidity;BMP_temperature;BMP_pressure;BME280_temperature;BME280_humidity;BME280_pressure;Samples;Min_cycle;Max_cycle;Signal;HPM_P1;HPM_P2
2022/07/11 00:00:12;;;;;;;4.70;1.38;;;16.30;99.90;;;;;;5059782;28;20048;-70
2022/07/11 00:02:39;;;;;;;2.15;0.90;;;16.30;99.90;;;;;;5058984;28;20059;-70
2022/07/11 00:05:05;;;;;;;2.70;1.20;;;16.20;99.90;;;;;;5059343;28;20351;-70
2022/07/11 00:07:31;;;;;;;3.53;1.20;;;16.20;99.90;;;;;;5078039;28;20041;-70
2022/07/11 00:09:56;;;;;;;3.95;1.20;;;16.20;99.90;;;;;;5059624;28;20102;-70
2022/07/11 00:12:25;;;;;;;2.03;1.10;;;16.20;99.90;;;;;;5059978;28;20067;-70
2022/07/11 00:14:50;;;;;;;3.88;0.93;;;16.20;99.90;;;;;;5077489;28;20098;-70
2022/07/11 00:17:16;;;;;;;1.90;0.90;;;16.10;99.90;;;;;;5077168;28;20040;-70
2022/07/11 00:19:42;;;;;;;2.92;1.10;;;16.10;99.90;;;;;;5090668;28;20043;-70
2022/07/11 00:22:09;;;;;;;1.20;0.80;;;16.20;99.90;;;;;;5070702;28;20044;-70
2022/07/11 00:24:35;;;;;;;3.00;1.02;;;16.10;99.90;;;;;;5059958;28;20044;-70
2022/07/11 00:27:00;;;;;;;2.53;1.00;;;16.10;99.90;;;;;;5059723;28;20052;-70
2022/07/11 00:29:26;;;;;;;3.60;1.13;;;16.00;99.90;;;;;;5076975;28;20037;-70
2022/07/11 00:31:52;;;;;;;2.42;1.30;;;16.00;99.90;;;;;;5060036;28;20127;-70
2022/07/11 00:34:17;;;;;;;3.38;1.00;;;15.90;99.90;;;;;;5076587;28;20048;-69
2022/07/11 00:36:44;;;;;;;2.13;1.15;;;16.00;99.90;;;;;;5063655;28;20044;-70
2022/07/11 00:39:10;;;;;;;9.88;1.13;;;15.80;99.90;;;;;;5077525;28;20044;-70
2022/07/11 00:41:35;;;;;;;3.25;0.85;;;15.80;99.90;;;;;;5096903;28;20501;-70
2022/07/11 00:44:01;;;;;;;1.52;1.00;;;15.80;99.90;;;;;;5096804;28;20356;-70
2022/07/11 00:46:29;;;;;;;2.53;0.93;;;15.80;99.90;;;;;;5097580;28;20043;-70
2022/07/11 00:48:55;;;;;;;4.13;1.00;;;15.80;99.90;;;;;;5096318;28;20767;-70
2022/07/11 00:51:21;;;;;;;3.85;1.35;;;15.70;99.90;;;;;;5096615;28;20076;-70
2022/07/11 00:53:52;;;;;;;3.13;1.20;;;15.80;99.90;;;;;;5074464;28;20044;-70
2022/07/11 00:56:23;;;;;;;3.67;1.15;;;15.80;99.90;;;;;;5059020;28;20063;-70
2022/07/11 00:58:50;;;;;;;1.92;1.08;;;15.80;99.90;;;;;;5076601;28;20048;-70
2022/07/11 01:01:16;;;;;;;2.83;1.50;;;15.80;99.90;;;;;;5059459;28;20429;-70
2022/07/11 01:03:42;;;;;;;1.75;0.98;;;15.70;99.90;;;;;;5076255;28;20036;-70
2022/07/11 01:06:08;;;;;;;3.08;1.05;;;15.60;99.90;;;;;;5058802;28;20044;-70
2022/07/11 01:08:38;;;;;;;4.03;1.27;;;15.60;99.90;;;;;;5072363;28;20048;-70
2022/07/11 01:11:05;;;;;;;4.30;1.45;;;15.70;99.90;;;;;;5078854;28;20076;-70
2022/07/11 01:13:31;;;;;;;3.25;1.20;;;15.70;99.90;;;;;;5078555;28;20083;-70
2022/07/11 01:16:16;;;;;;;3.17;1.23;;;15.80;99.90;;;;;;5096468;28;20099;-70
2022/07/11 01:18:47;;;;;;;3.33;1.65;;;15.70;99.90;;;;;;5078815;28;20052;-70
2022/07/11 01:21:24;;;;;;;4.00;1.70;;;15.80;99.90;;;;;;5078724;28;20081;-70
2022/07/11 01:23:51;;;;;;;2.58;1.25;;;15.70;99.90;;;;;;5074396;28;20052;-70
2022/07/11 01:26:19;;;;;;;4.65;1.55;;;15.70;99.90;;;;;;5058158;28;20044;-70
2022/07/11 01:28:44;;;;;;;3.10;1.25;;;15.70;99.90;;;;;;5058486;28;20523;-70
2022/07/11 01:31:12;;;;;;;5.75;1.38;;;15.70;99.90;;;;;;5075484;28;20037;-70
2022/07/11 01:33:37;;;;;;;2.28;1.23;;;15.70;99.90;;;;;;5075688;28;20123;-70
2022/07/11 01:36:03;;;;;;;3.72;1.35;;;15.70;99.90;;;;;;5058043;28;20084;-69
2022/07/11 01:38:29;;;;;;;9.27;1.40;;;15.80;99.90;;;;;;5074941;28;20465;-70
2022/07/11 01:40:55;;;;;;;3.20;1.35;;;15.70;99.90;;;;;;5095898;28;20044;-70
2022/07/11 01:43:20;;;;;;;6.18;1.60;;;15.70;99.90;;;;;;5078479;28;20063;-70
2022/07/11 01:45:46;;;;;;;2.95;1.20;;;15.70;99.90;;;;;;5078177;28;20139;-70
2022/07/11 01:48:11;;;;;;;2.75;1.27;;;15.70;99.90;;;;;;5071321;28;20040;-70
2022/07/11 01:50:37;;;;;;;2.47;1.35;;;15.70;99.90;;;;;;5075092;28;20045;-70
2022/07/11 01:53:03;;;;;;;4.25;1.45;;;15.70;99.90;;;;;;5057584;28;20044;-70
2022/07/11 01:55:29;;;;;;;2.25;1.40;;;15.70;99.90;;;;;;5057578;28;20485;-70
2022/07/11 01:57:54;;;;;;;2.88;1.50;;;15.80;99.90;;;;;;5075186;28;20044;-70
2022/07/11 02:00:20;;;;;;;4.40;1.50;;;15.80;99.90;;;;;;5075117;28;20048;-70
2022/07/11 02:02:46;;;;;;;4.20;1.70;;;15.80;99.90;;;;;;5074837;28;20346;-69
2022/07/11 02:05:11;;;;;;;2.55;1.30;;;15.70;99.90;;;;;;5086757;28;20055;-70
2022/07/11 02:10:21;;;;;;;3.58;1.40;;;15.70;99.90;;;;;;5077833;28;20055;-70
2022/07/11 02:12:46;;;;;;;4.28;1.30;;;15.70;99.90;;;;;;5077085;28;20364;-70
2022/07/11 02:15:13;;;;;;;1.98;1.20;;;15.80;99.90;;;;;;5077897;28;20126;-70
2022/07/11 02:17:39;;;;;;;4.10;1.40;;;15.80;99.90;;;;;;5077783;28;20052;-70
2022/07/11 02:20:05;;;;;;;2.03;1.20;;;15.80;99.90;;;;;;5057008;28;20349;-70
2022/07/11 02:22:31;;;;;;;3.13;1.73;;;15.80;99.90;;;;;;5075251;28;20044;-70
2022/07/11 02:24:56;;;;;;;2.28;1.40;;;15.80;99.90;;;;;;5073680;28;20376;-70
2022/07/11 02:27:22;;;;;;;4.00;1.42;;;15.80;99.90;;;;;;5074820;28;20110;-70
2022/07/11 02:29:47;;;;;;;3.35;1.45;;;15.80;99.90;;;;;;5074606;28;20049;-70
2022/07/11 02:32:13;;;;;;;4.60;1.45;;;15.80;99.90;;;;;;5074985;28;20080;-70
2022/07/11 02:34:38;;;;;;;2.95;1.40;;;15.80;99.90;;;;;;5077698;28;20074;-70
2022/07/11 02:37:05;;;;;;;3.28;1.40;;;15.80;99.90;;;;;;5077494;28;20063;-70
2022/07/11 02:39:31;;;;;;;4.90;1.90;;;15.70;99.90;;;;;;5094545;28;20464;-69
2022/07/11 02:41:57;;;;;;;2.85;1.50;;;15.70;99.90;;;;;;5094863;28;20036;-70
2022/07/11 02:44:22;;;;;;;2.53;1.35;;;15.70;99.90;;;;;;5077835;28;20059;-70
2022/07/11 02:46:48;;;;;;;4.57;1.60;;;15.70;99.90;;;;;;5076906;28;20475;-70
2022/07/11 02:49:13;;;;;;;2.92;1.42;;;15.70;99.90;;;;;;5073128;28;20048;-69
2022/07/11 02:51:39;;;;;;;4.93;1.45;;;15.70;99.90;;;;;;5057256;28;20060;-69
2022/07/11 02:54:04;;;;;;;2.97;1.67;;;15.60;99.90;;;;;;5056873;28;20053;-69
2022/07/11 02:56:30;;;;;;;3.83;1.55;;;15.60;99.90;;;;;;5074535;28;20064;-70
2022/07/11 02:58:56;;;;;;;2.72;1.63;;;15.60;99.90;;;;;;5075029;28;20120;-69
2022/07/11 03:01:21;;;;;;;3.75;1.70;;;15.60;99.90;;;;;;5056767;28;20059;-70
2022/07/11 03:03:47;;;;;;;2.80;1.48;;;15.60;99.90;;;;;;5070770;28;20372;-70
2022/07/11 03:06:12;;;;;;;3.10;1.30;;;15.70;99.90;;;;;;5074574;28;20044;-70
2022/07/11 03:08:39;;;;;;;2.67;1.33;;;15.60;99.90;;;;;;5057021;28;20049;-70
2022/07/11 03:11:05;;;;;;;3.70;1.70;;;15.70;99.90;;;;;;5057083;28;20048;-70
2022/07/11 03:13:31;;;;;;;2.90;1.63;;;15.60;99.90;;;;;;5057466;28;20369;-70
2022/07/11 03:15:56;;;;;;;3.42;1.67;;;15.60;99.90;;;;;;5056958;28;20041;-70
2022/07/11 03:18:22;;;;;;;2.58;1.52;;;15.60;99.90;;;;;;5056986;28;20129;-70
2022/07/11 03:20:48;;;;;;;4.28;1.50;;;15.60;99.90;;;;;;5075140;28;20040;-70
2022/07/11 03:23:13;;;;;;;2.92;1.50;;;15.60;99.90;;;;;;5057149;28;20143;-69
2022/07/11 03:25:39;;;;;;;2.75;1.50;;;15.70;99.90;;;;;;5056909;28;20060;-70
2022/07/11 03:28:05;;;;;;;3.20;1.48;;;15.60;99.90;;;;;;5057421;28;20045;-70
2022/07/11 03:30:31;;;;;;;2.95;1.58;;;15.60;99.90;;;;;;5056927;28;20059;-69
2022/07/11 03:32:56;;;;;;;3.75;1.52;;;15.60;99.90;;;;;;5075631;28;20441;-69
2022/07/11 03:38:07;;;;;;;2.80;1.23;;;15.70;99.90;;;;;;5077782;28;20111;-69
2022/07/11 03:40:33;;;;;;;3.60;1.60;;;15.70;99.90;;;;;;5060191;28;20056;-69
2022/07/11 03:42:58;;;;;;;2.55;1.48;;;15.60;99.90;;;;;;5077451;28;20037;-69
2022/07/11 03:45:24;;;;;;;4.00;1.55;;;15.70;99.90;;;;;;5060477;28;20061;-69
2022/07/11 03:47:50;;;;;;;2.92;1.55;;;15.80;99.90;;;;;;5077455;28;20043;-70
2022/07/11 03:50:16;;;;;;;3.60;1.60;;;15.60;99.90;;;;;;5059765;28;20099;-70
2022/07/11 03:52:42;;;;;;;2.67;1.23;;;15.70;99.90;;;;;;5077880;28;20437;-69
2022/07/11 03:55:08;;;;;;;2.45;1.30;;;15.70;99.90;;;;;;5080448;28;20114;-69
2022/07/11 03:57:34;;;;;;;3.70;1.50;;;15.80;99.90;;;;;;5080208;28;20472;-70
2022/07/11 04:00:02;;;;;;;6.40;1.85;;;15.80;99.90;;;;;;5079947;28;20039;-70
2022/07/11 04:02:28;;;;;;;5.00;1.80;;;15.80;99.90;;;;;;5079969;28;20180;-70
2022/07/11 04:04:53;;;;;;;3.72;1.60;;;15.80;99.90;;;;;;5097843;28;20043;-69
2022/07/11 04:07:20;;;;;;;4.32;1.60;;;15.80;99.90;;;;;;5075153;28;20098;-69
2022/07/11 04:09:45;;;;;;;3.85;1.42;;;15.80;99.90;;;;;;5060219;28;20121;-69
2022/07/11 04:12:11;;;;;;;3.15;1.42;;;15.70;99.90;;;;;;5059350;28;20407;-70
2022/07/11 04:14:37;;;;;;;3.28;1.67;;;15.70;99.90;;;;;;5059507;28;20337;-69
2022/07/11 04:17:03;;;;;;;5.50;2.00;;;15.80;99.90;;;;;;5060217;28;20044;-69
2022/07/11 04:19:29;;;;;;;2.83;1.40;;;15.80;99.90;;;;;;5077159;28;20052;-69
2022/07/11 04:21:55;;;;;;;4.00;1.50;;;15.80;99.90;;;;;;5076637;28;20456;-70
2022/07/11 04:24:21;;;;;;;3.15;1.50;;;15.70;99.90;;;;;;5059171;28;20048;-69
2022/07/11 04:26:47;;;;;;;4.03;1.45;;;15.80;99.90;;;;;;5076938;28;20041;-69
2022/07/11 04:29:12;;;;;;;3.15;1.48;;;15.80;99.90;;;;;;5059519;28;20137;-69
2022/07/11 04:31:38;;;;;;;2.08;1.05;;;15.80;99.90;;;;;;5059364;28;20059;-69
2022/07/11 04:34:04;;;;;;;2.60;1.20;;;15.70;99.90;;;;;;5059423;28;20047;-70
2022/07/11 04:36:29;;;;;;;2.33;1.10;;;15.80;99.90;;;;;;5059228;28;20053;-69
2022/07/11 04:38:55;;;;;;;1.80;1.20;;;15.80;99.90;;;;;;5076621;28;20041;-70
2022/07/11 04:41:20;;;;;;;2.35;1.10;;;15.80;99.90;;;;;;5059699;28;20040;-69
2022/07/11 04:43:46;;;;;;;4.85;1.05;;;15.80;99.90;;;;;;5059076;28;20044;-70
2022/07/11 04:46:11;;;;;;;2.63;1.15;;;15.80;99.90;;;;;;5059169;28;20045;-69
2022/07/11 04:48:38;;;;;;;4.07;1.60;;;15.90;99.90;;;;;;5058287;28;20060;-70
2022/07/11 04:51:05;;;;;;;2.67;0.95;;;15.90;99.90;;;;;;5071196;28;20068;-69
2022/07/11 04:53:30;;;;;;;2.70;0.98;;;15.90;99.90;;;;;;5078740;28;20135;-69
2022/07/11 04:55:56;;;;;;;3.08;1.42;;;16.00;99.90;;;;;;5096477;28;20143;-69
2022/07/11 04:58:22;;;;;;;4.22;1.38;;;16.10;99.90;;;;;;5096977;28;20039;-70
2022/07/11 05:00:47;;;;;;;1.95;1.08;;;16.20;99.90;;;;;;5076929;28;20133;-69
2022/07/11 05:03:14;;;;;;;4.60;0.80;;;16.20;99.90;;;;;;5058135;28;20101;-69
2022/07/11 05:05:41;;;;;;;1.40;0.85;;;16.10;99.90;;;;;;5076083;28;20058;-70
2022/07/11 05:08:07;;;;;;;3.33;1.10;;;16.20;99.90;;;;;;5076012;28;20119;-70
2022/07/11 05:10:33;;;;;;;1.15;0.70;;;16.10;99.90;;;;;;5041906;28;20056;-70
2022/07/11 05:12:59;;;;;;;2.75;0.80;;;16.10;99.90;;;;;;5076197;28;20131;-69
2022/07/11 05:15:25;;;;;;;1.27;0.70;;;16.10;99.90;;;;;;5076321;28;20128;-69
2022/07/11 05:17:50;;;;;;;2.05;1.00;;;16.10;99.90;;;;;;5075715;28;20080;-69
2022/07/11 05:20:16;;;;;;;1.65;0.85;;;16.10;99.90;;;;;;5058025;28;20457;-70
2022/07/11 05:22:42;;;;;;;2.00;0.88;;;16.10;99.90;;;;;;5058551;28;20044;-70
2022/07/11 05:25:08;;;;;;;1.92;0.80;;;16.10;99.90;;;;;;5075698;28;20040;-69
2022/07/11 05:27:33;;;;;;;1.92;0.80;;;16.10;99.90;;;;;;5075905;28;20102;-70
2022/07/11 05:29:59;;;;;;;1.50;0.82;;;16.10;99.90;;;;;;5058493;28;20349;-69
2022/07/11 05:32:25;;;;;;;1.05;0.60;;;16.20;99.90;;;;;;5071195;28;20048;-69
2022/07/11 05:34:50;;;;;;;0.77;0.60;;;16.20;99.90;;;;;;5078462;28;20474;-70
2022/07/11 05:37:16;;;;;;;2.80;0.75;;;16.30;99.90;;;;;;5077927;28;20062;-70
2022/07/11 05:39:42;;;;;;;1.23;0.80;;;16.30;99.90;;;;;;5078307;28;20132;-70
2022/07/11 05:42:08;;;;;;;1.83;0.80;;;16.30;99.90;;;;;;5078028;28;20474;-70
2022/07/11 05:44:34;;;;;;;2.25;0.60;;;16.30;99.90;;;;;;5077943;28;20054;-69
2022/07/11 05:47:03;;;;;;;3.15;0.50;;;16.40;99.90;;;;;;5073774;28;20044;-70
2022/07/11 05:49:31;;;;;;;2.15;0.80;;;16.40;99.90;;;;;;5075210;28;20059;-70
2022/07/11 05:51:57;;;;;;;0.65;0.55;;;16.40;99.90;;;;;;5075349;28;20044;-70
2022/07/11 05:54:22;;;;;;;0.90;0.60;;;16.40;99.90;;;;;;5075571;28;20071;-69
2022/07/11 05:56:48;;;;;;;1.75;0.50;;;16.50;99.90;;;;;;5057551;28;20072;-69
2022/07/11 05:59:14;;;;;;;2.13;0.70;;;16.50;99.90;;;;;;5056773;28;20051;-70
2022/07/11 06:01:40;;;;;;;4.20;0.50;;;16.60;99.90;;;;;;5068920;28;20083;-70
2022/07/11 06:04:05;;;;;;;6.22;0.52;;;16.60;99.90;;;;;;5095241;28;20040;-70
2022/07/11 06:06:31;;;;;;;2.83;0.70;;;16.70;99.90;;;;;;5077866;28;20052;-70
2022/07/11 06:08:57;;;;;;;1.55;0.85;;;16.80;99.90;;;;;;5077588;28;20040;-70
2022/07/11 06:11:22;;;;;;;0.57;0.50;;;16.90;99.90;;;;;;5077897;28;20054;-70
2022/07/11 06:13:49;;;;;;;2.00;0.50;;;17.00;99.90;;;;;;5077605;28;20056;-69
2022/07/11 06:16:16;;;;;;;0.75;0.65;;;16.90;99.90;;;;;;5075583;28;20066;-70
2022/07/11 06:18:42;;;;;;;0.80;0.60;;;16.90;99.90;;;;;;5057644;28;20045;-70
2022/07/11 06:21:08;;;;;;;1.10;0.60;;;16.80;99.90;;;;;;5057625;28;20415;-70
2022/07/11 06:23:37;;;;;;;1.45;0.60;;;16.90;99.90;;;;;;5075343;28;20136;-69
2022/07/11 06:26:03;;;;;;;1.70;0.65;;;16.90;99.90;;;;;;5057511;28;20140;-70
2022/07/11 06:28:29;;;;;;;3.28;0.95;;;16.90;99.90;;;;;;5075310;28;20055;-70
2022/07/11 06:30:55;;;;;;;0.35;0.35;;;16.90;99.90;;;;;;5059593;28;20427;-70
2022/07/11 06:33:21;;;;;;;0.55;0.50;;;17.10;99.90;;;;;;5074489;28;20044;-70
2022/07/11 06:35:47;;;;;;;0.47;0.47;;;17.10;99.90;;;;;;5058717;28;20041;-70
2022/07/11 06:38:14;;;;;;;2.20;0.88;;;17.10;99.90;;;;;;5074941;28;20060;-70
2022/07/11 06:40:41;;;;;;;0.43;0.43;;;17.20;99.90;;;;;;5057487;28;20346;-70
2022/07/11 06:43:10;;;;;;;0.75;0.50;;;17.50;99.90;;;;;;5057465;28;20052;-70
2022/07/11 06:45:36;;;;;;;0.50;0.50;;;18.20;99.90;;;;;;5057675;28;20044;-70
2022/07/11 06:48:02;;;;;;;1.13;0.50;;;18.80;99.90;;;;;;5057043;28;20044;-70
2022/07/11 06:50:28;;;;;;;0.63;0.40;;;19.20;99.90;;;;;;5060019;28;20063;-70
2022/07/11 06:52:54;;;;;;;0.50;0.40;;;19.60;99.90;;;;;;5094175;28;20056;-70
2022/07/11 06:55:19;;;;;;;1.85;0.43;;;19.90;99.90;;;;;;5076620;28;20048;-70
2022/07/11 06:57:45;;;;;;;0.43;0.40;;;19.80;99.90;;;;;;5077022;28;20113;-71
2022/07/11 07:00:11;;;;;;;1.85;0.47;;;19.70;99.90;;;;;;5076994;28;20360;-70
2022/07/11 07:02:38;;;;;;;1.27;0.60;;;19.90;99.90;;;;;;5077361;28;20044;-70
2022/07/11 07:05:04;;;;;;;0.55;0.35;;;20.00;99.90;;;;;;5078007;28;20052;-70
2022/07/11 07:07:30;;;;;;;0.55;0.38;;;20.00;99.90;;;;;;5072995;28;20118;-70
2022/07/11 07:09:56;;;;;;;1.23;0.57;;;20.10;99.90;;;;;;5075322;28;20426;-70
2022/07/11 07:12:22;;;;;;;0.30;0.30;;;20.10;99.90;;;;;;5078475;28;20040;-70
2022/07/11 07:14:48;;;;;;;0.40;0.38;;;19.90;99.90;;;;;;5078329;28;20045;-70
2022/07/11 07:17:14;;;;;;;2.17;0.40;;;19.70;99.90;;;;;;5060804;28;20120;-70
2022/07/11 07:19:40;;;;;;;1.20;0.40;;;19.60;99.90;;;;;;5060534;28;20056;-70
2022/07/11 07:22:05;;;;;;;1.55;0.45;;;19.50;99.90;;;;;;5061502;28;20461;-70
2022/07/11 07:24:32;;;;;;;0.30;0.30;;;19.40;99.90;;;;;;5061064;28;20040;-70
2022/07/11 07:26:58;;;;;;;0.30;0.30;;;19.50;99.90;;;;;;5060935;28;20417;-70
2022/07/11 07:29:25;;;;;;;0.47;0.47;;;19.70;99.90;;;;;;5060772;28;20067;-70
2022/07/11 07:31:52;;;;;;;0.70;0.50;;;19.80;99.90;;;;;;5078210;28;20346;-70
2022/07/11 07:34:19;;;;;;;1.25;0.45;;;19.80;99.90;;;;;;5077933;28;20055;-70
2022/07/11 07:36:44;;;;;;;0.32;0.30;;;19.60;99.90;;;;;;5060770;28;20060;-70
2022/07/11 07:39:10;;;;;;;0.30;0.30;;;19.60;99.90;;;;;;5077998;28;20353;-70
2022/07/11 07:41:36;;;;;;;1.15;0.40;;;19.30;99.90;;;;;;5060310;28;20048;-71
2022/07/11 07:44:02;;;;;;;0.55;0.35;;;19.40;99.90;;;;;;5060112;28;20409;-70
2022/07/11 07:46:27;;;;;;;0.35;0.30;;;19.40;99.90;;;;;;5060905;28;20045;-70
2022/07/11 07:48:53;;;;;;;0.85;0.47;;;19.50;99.90;;;;;;5060358;28;20044;-70
2022/07/11 07:51:18;;;;;;;1.10;0.43;;;19.80;99.90;;;;;;5077515;28;20047;-70
2022/07/11 07:53:44;;;;;;;0.60;0.50;;;20.30;99.90;;;;;;5047204;28;20548;-70
2022/07/11 07:56:10;;;;;;;0.40;0.40;;;20.70;99.90;;;;;;5039942;28;20088;-70
2022/07/11 07:58:38;;;;;;;2.15;0.60;;;20.60;99.90;;;;;;5039996;28;20062;-70
2022/07/11 08:03:47;;;;;;;0.60;0.40;;;20.40;99.90;;;;;;5040415;28;20381;-70
2022/07/11 08:06:13;;;;;;;0.85;0.40;;;20.20;99.90;;;;;;5057371;28;20052;-70
2022/07/11 08:08:39;;;;;;;1.80;0.68;;;19.90;99.90;;;;;;5040093;28;20056;-70
2022/07/11 08:11:04;;;;;;;0.70;0.50;;;19.50;99.90;;;;;;5039524;28;20049;-70
2022/07/11 08:13:30;;;;;;;1.00;0.50;;;19.20;99.90;;;;;;5040038;28;20457;-70
2022/07/11 08:15:56;;;;;;;1.13;0.50;;;19.10;99.90;;;;;;5039389;28;20052;-70
2022/07/11 08:18:21;;;;;;;2.10;0.70;;;19.20;99.90;;;;;;5057233;28;20099;-70
2022/07/11 08:20:47;;;;;;;1.30;0.70;;;19.60;99.90;;;;;;5039306;28;20468;-70
2022/07/11 08:23:13;;;;;;;1.85;0.43;;;20.10;99.90;;;;;;5038609;28;20420;-70
2022/07/11 08:25:39;;;;;;;0.80;0.50;;;20.50;99.90;;;;;;5056959;28;20389;-71
2022/07/11 08:28:05;;;;;;;1.58;0.65;;;20.50;99.90;;;;;;5039864;28;20044;-71
2022/07/11 08:30:31;;;;;;;1.15;0.43;;;20.50;99.90;;;;;;5039716;28;20323;-70
2022/07/11 08:32:57;;;;;;;0.90;0.52;;;20.50;99.90;;;;;;5056914;28;20128;-70
2022/07/11 08:35:22;;;;;;;1.25;0.50;;;20.40;99.90;;;;;;5057497;28;20036;-70
2022/07/11 08:37:48;;;;;;;1.13;0.55;;;20.40;99.90;;;;;;5039815;28;20049;-70
2022/07/11 08:40:14;;;;;;;1.55;0.40;;;20.50;99.90;;;;;;5038958;28;20041;-70
2022/07/11 08:42:44;;;;;;;0.55;0.32;;;20.60;99.90;;;;;;5039137;28;20048;-70
2022/07/11 08:45:14;;;;;;;0.30;0.30;;;20.60;99.90;;;;;;5039043;28;20357;-70
2022/07/11 08:47:41;;;;;;;1.83;0.77;;;20.70;99.90;;;;;;5039370;28;20052;-70
2022/07/11 08:50:07;;;;;;;2.40;0.88;;;21.00;99.90;;;;;;5039063;28;20380;-70
2022/07/11 08:52:33;;;;;;;0.30;0.30;;;20.90;99.90;;;;;;5042853;28;20048;-70
2022/07/11 08:54:59;;;;;;;0.30;0.30;;;20.70;99.90;;;;;;5059501;28;20048;-70
2022/07/11 08:57:25;;;;;;;0.32;0.30;;;20.40;99.90;;;;;;5059503;28;20410;-70
2022/07/11 08:59:55;;;;;;;0.20;0.20;;;20.30;99.90;;;;;;5059269;28;20412;-70
2022/07/11 09:02:22;;;;;;;0.77;0.32;;;20.00;99.90;;;;;;5058536;28;20053;-70
2022/07/11 09:04:48;;;;;;;0.20;0.20;;;19.80;99.90;;;;;;5058614;28;20131;-70
2022/07/11 09:07:14;;;;;;;0.93;0.65;;;19.90;99.90;;;;;;5058534;28;20127;-70
2022/07/11 09:09:39;;;;;;;0.20;0.20;;;20.00;99.90;;;;;;5075982;28;20132;-70
2022/07/11 09:12:25;;;;;;;0.60;0.30;;;20.30;99.90;;;;;;5058577;28;20127;-71
2022/07/11 09:14:54;;;;;;;0.35;0.35;;;20.60;99.90;;;;;;5057788;28;20059;-70
2022/07/11 09:17:27;;;;;;;0.22;0.20;;;20.70;99.90;;;;;;5076166;28;20391;-71
2022/07/11 09:19:53;;;;;;;0.25;0.25;;;20.70;99.90;;;;;;5058154;28;20059;-70
2022/07/11 09:25:31;;;;;;;0.20;0.20;;;20.60;99.90;;;;;;5077783;28;20412;-70
2022/07/11 09:28:05;;;;;;;0.43;0.30;;;20.30;99.90;;;;;;5079184;28;20052;-70
2022/07/11 09:30:39;;;;;;;7.70;0.68;;;20.00;99.90;;;;;;5078969;28;20044;-70
2022/07/11 09:33:09;;;;;;;0.30;0.30;;;19.90;99.90;;;;;;5077841;28;20132;-70
2022/07/11 09:35:41;;;;;;;1.27;0.73;;;19.90;99.90;;;;;;5075498;28;20132;-70
2022/07/11 09:38:11;;;;;;;0.30;0.30;;;19.90;99.90;;;;;;5075665;28;20448;-71
2022/07/11 09:40:38;;;;;;;0.30;0.30;;;19.90;99.90;;;;;;5057958;28;20453;-71
2022/07/11 09:43:05;;;;;;;0.85;0.60;;;20.20;99.90;;;;;;5075655;28;20044;-70
2022/07/11 09:45:32;;;;;;;0.85;0.60;;;20.50;99.90;;;;;;5058825;28;20135;-70
2022/07/11 09:48:00;;;;;;;0.55;0.30;;;20.70;99.90;;;;;;5058236;28;20040;-70
2022/07/11 09:50:30;;;;;;;0.73;0.30;;;20.80;99.90;;;;;;5057883;28;20471;-71
2022/07/11 09:53:05;;;;;;;0.30;0.30;;;20.80;99.90;;;;;;5075073;28;20468;-70
2022/07/11 09:55:33;;;;;;;0.90;0.35;;;20.70;99.90;;;;;;5058093;28;20048;-71
2022/07/11 09:57:59;;;;;;;0.30;0.30;;;20.70;99.90;;;;;;5075831;28;20066;-71
2022/07/11 10:00:24;;;;;;;0.30;0.30;;;20.70;99.90;;;;;;5057533;28;20177;-71
2022/07/11 10:02:52;;;;;;;0.43;0.30;;;20.60;99.90;;;;;;5057458;28;20063;-70
2022/07/11 10:05:18;;;;;;;0.25;0.25;;;20.40;99.90;;;;;;5061163;28;20044;-70
2022/07/11 10:07:44;;;;;;;0.20;0.20;;;20.40;99.90;;;;;;5077355;28;20128;-70
2022/07/11 10:10:10;;;;;;;1.23;0.40;;;20.40;99.90;;;;;;5077191;28;20040;-71
2022/07/11 10:12:36;;;;;;;0.30;0.30;;;20.50;99.90;;;;;;5077900;28;20044;-71
2022/07/11 10:15:08;;;;;;;0.22;0.22;;;20.40;99.90;;;;;;5077950;28;20048;-70
2022/07/11 10:18:07;;;;;;;0.50;0.30;;;20.40;99.90;;;;;;5077695;28;20121;-70
2022/07/11 10:21:00;;;;;;;0.40;0.40;;;20.30;99.90;;;;;;5049415;28;20157;-71
2022/07/11 10:23:35;;;;;;;0.40;0.40;;;20.10;99.90;;;;;;5057022;28;20048;-71
2022/07/11 10:26:28;;;;;;;0.20;0.20;;;20.00;99.90;;;;;;5057918;28;20049;-70
2022/07/11 10:28:59;;;;;;;0.73;0.22;;;19.90;99.90;;;;;;5075254;28;20052;-70
2022/07/11 10:31:26;;;;;;;0.38;0.38;;;19.90;99.90;;;;;;5075354;28;20140;-70
2022/07/11 10:34:19;;;;;;;0.47;0.40;;;20.00;99.90;;;;;;5057761;28;20356;-71
2022/07/11 10:36:45;;;;;;;0.30;0.30;;;20.00;99.90;;;;;;5073664;28;20044;-70
2022/07/11 10:39:18;;;;;;;0.60;0.30;;;20.10;99.90;;;;;;5075039;28;20036;-70
2022/07/11 10:41:44;;;;;;;0.40;0.35;;;20.00;99.90;;;;;;5074493;28;20063;-70
2022/07/11 10:44:11;;;;;;;0.43;0.30;;;20.00;99.90;;;;;;5057120;28;20053;-70
2022/07/11 10:46:37;;;;;;;0.30;0.30;;;19.90;99.90;;;;;;5059970;28;20086;-71
2022/07/11 10:49:17;;;;;;;2.03;0.43;;;19.80;99.90;;;;;;5061574;28;20076;-70
2022/07/11 10:51:48;;;;;;;0.65;0.45;;;19.70;99.90;;;;;;5061198;28;20586;-70
2022/07/11 10:54:51;;;;;;;0.47;0.40;;;19.70;99.90;;;;;;5078587;28;20071;-70
2022/07/11 10:57:44;;;;;;;1.63;0.70;;;19.80;99.90;;;;;;5078462;28;20045;-70
2022/07/11 11:00:14;;;;;;;0.30;0.30;;;20.20;99.90;;;;;;5078860;28;20353;-70
2022/07/11 11:03:06;;;;;;;0.50;0.50;;;20.60;99.90;;;;;;5078770;28;20131;-71
2022/07/11 11:05:54;;;;;;;0.28;0.20;;;20.90;99.90;;;;;;5061318;28;20084;-70
2022/07/11 11:08:35;;;;;;;0.30;0.30;;;20.90;99.90;;;;;;5063388;28;20075;-71
2022/07/11 11:11:19;;;;;;;4.45;0.55;;;20.80;99.90;;;;;;5099049;28;20470;-71
2022/07/11 11:13:45;;;;;;;1.50;0.40;;;20.80;99.90;;;;;;5081433;28;20074;-71
2022/07/11 11:16:22;;;;;;;2.28;0.40;;;20.80;99.90;;;;;;5081064;28;20453;-70
2022/07/11 11:18:48;;;;;;;0.30;0.30;;;20.80;99.90;;;;;;5080682;28;20044;-71
2022/07/11 11:21:18;;;;;;;0.35;0.30;;;20.80;99.90;;;;;;5098327;28;20421;-70
2022/07/11 11:23:59;;;;;;;1.23;0.30;;;20.90;99.90;;;;;;5076255;28;20052;-70
2022/07/11 11:26:45;;;;;;;0.30;0.30;;;21.30;99.90;;;;;;5061214;28;20102;-71
2022/07/11 11:29:10;;;;;;;0.93;0.40;;;21.40;99.90;;;;;;5060723;28;20376;-71
2022/07/11 11:31:36;;;;;;;0.30;0.30;;;21.40;99.90;;;;;;5078268;28;20041;-71
2022/07/11 11:34:03;;;;;;;0.47;0.32;;;21.40;99.90;;;;;;5060755;28;20044;-71
2022/07/11 11:36:30;;;;;;;0.43;0.40;;;21.20;99.90;;;;;;5060690;28;20048;-71
2022/07/11 11:38:56;;;;;;;0.45;0.40;;;21.10;99.90;;;;;;5071819;28;20043;-70
2022/07/11 11:41:27;;;;;;;0.65;0.40;;;21.10;99.90;;;;;;5080596;28;20116;-70
2022/07/11 11:43:55;;;;;;;0.95;0.40;;;20.80;99.90;;;;;;5079947;28;20040;-70
2022/07/11 11:46:28;;;;;;;2.25;0.52;;;20.80;99.90;;;;;;5080661;28;20044;-70
2022/07/11 11:48:55;;;;;;;2.38;0.40;;;20.60;99.90;;;;;;5098068;28;20044;-70
2022/07/11 11:51:22;;;;;;;0.65;0.40;;;20.70;99.90;;;;;;5081017;28;20052;-70
2022/07/11 11:53:50;;;;;;;0.47;0.43;;;21.00;99.90;;;;;;5075466;28;20468;-71
2022/07/11 11:56:15;;;;;;;1.05;0.40;;;21.20;99.90;;;;;;5059900;28;20127;-71
2022/07/11 11:58:45;;;;;;;0.32;0.30;;;21.20;99.90;;;;;;5060923;28;20148;-70
2022/07/11 12:01:12;;;;;;;0.63;0.40;;;21.10;99.90;;;;;;5077769;28;20113;-70
2022/07/11 12:03:55;;;;;;;0.85;0.47;;;20.90;99.90;;;;;;5077967;28;20436;-71
2022/07/11 12:06:26;;;;;;;3.15;0.35;;;20.80;99.90;;;;;;5060348;28;20052;-70
2022/07/11 12:08:57;;;;;;;3.50;0.60;;;20.80;99.90;;;;;;5072018;28;20147;-70
2022/07/11 12:11:23;;;;;;;1.13;0.43;;;20.80;99.90;;;;;;5060082;28;20124;-71
2022/07/11 12:13:58;;;;;;;0.50;0.50;;;21.20;99.90;;;;;;5060345;28;20135;-70
2022/07/11 12:16:43;;;;;;;0.60;0.40;;;21.50;99.90;;;;;;5077361;28;20044;-71
2022/07/11 12:19:22;;;;;;;1.13;0.40;;;21.70;99.90;;;;;;5060322;28;20048;-70
2022/07/11 12:21:50;;;;;;;0.43;0.30;;;21.80;99.90;;;;;;5059612;28;20045;-71
2022/07/11 12:24:19;;;;;;;0.93;0.32;;;21.90;99.90;;;;;;5065297;28;20044;-71
2022/07/11 12:26:46;;;;;;;0.30;0.30;;;21.90;99.90;;;;;;5059780;28;20052;-71
2022/07/11 12:29:22;;;;;;;0.68;0.32;;;21.70;99.90;;;;;;5077281;28;20036;-71
2022/07/11 12:31:50;;;;;;;1.13;0.40;;;21.70;99.90;;;;;;5059425;28;20076;-71
2022/07/11 12:34:27;;;;;;;0.88;0.40;;;21.50;99.90;;;;;;5059610;28;20121;-71
2022/07/11 12:37:02;;;;;;;0.80;0.60;;;21.50;99.90;;;;;;5077310;28;20059;-71
2022/07/11 12:39:30;;;;;;;1.15;0.30;;;21.40;99.90;;;;;;5069825;28;20044;-71
2022/07/11 12:41:58;;;;;;;0.32;0.30;;;21.50;99.90;;;;;;5078878;28;20044;-71
2022/07/11 12:47:09;;;;;;;1.20;0.47;;;21.30;99.90;;;;;;5096742;28;20052;-71
2022/07/11 12:49:35;;;;;;;0.50;0.50;;;21.30;99.90;;;;;;5078954;28;20052;-71
2022/07/11 12:52:00;;;;;;;0.93;0.43;;;21.30;99.90;;;;;;5077251;28;20453;-70
2022/07/11 12:54:32;;;;;;;2.22;0.50;;;21.20;99.90;;;;;;5059292;28;20485;-71
2022/07/11 12:56:58;;;;;;;1.25;0.55;;;21.10;99.90;;;;;;5076475;28;20087;-71
2022/07/11 12:59:25;;;;;;;1.45;0.52;;;20.90;99.90;;;;;;5058284;28;20174;-71
2022/07/11 13:02:14;;;;;;;1.67;0.50;;;20.80;99.90;;;;;;5058703;28;20044;-71
2022/07/11 13:04:41;;;;;;;1.55;0.50;;;20.70;99.90;;;;;;5048399;28;20067;-70